sensor_id;sensor_type;location;lat;lon;timestamp;temperature;humidity
74364;DHT22;62797;49.740;10.154;2023-04-15T00:01:22;5.40;62.70
74364;DHT22;62797;49.740;10.154;2023-04-15T00:03:51;5.40;61.30
74364;DHT22;62797;49.740;10.154;2023-04-15T00:06:18;5.40;62.80
74364;DHT22;62797;49.740;10.154;2023-04-15T00:08:46;5.40;62.90
74364;DHT22;62797;49.740;10.154;2023-04-15T00:11:14;5.50;62.90
74364;DHT22;62797;49.740;10.154;2023-04-15T00:13:40;5.40;63.10
74364;DHT22;62797;49.740;10.154;2023-04-15T00:16:06;5.40;63.90
74364;DHT22;62797;49.740;10.154;2023-04-15T00:18:33;5.40;64.10
74364;DHT22;62797;49.740;10.154;2023-04-15T00:20:58;5.40;63.30
74364;DHT22;62797;49.740;10.154;2023-04-15T00:23:24;5.50;64.40
74364;DHT22;62797;49.740;10.154;2023-04-15T00:25:50;5.50;64.20
74364;DHT22;62797;49.740;10.154;2023-04-15T00:28:16;5.40;64.40
74364;DHT22;62797;49.740;10.154;2023-04-15T00:30:42;5.40;65.60
74364;DHT22;62797;49.740;10.154;2023-04-15T00:33:08;5.50;65.60
74364;DHT22;62797;49.740;10.154;2023-04-15T00:35:34;5.60;65.50
74364;DHT22;62797;49.740;10.154;2023-04-15T00:38:02;5.70;65.20
74364;DHT22;62797;49.740;10.154;2023-04-15T00:40:29;5.60;64.80
74364;DHT22;62797;49.740;10.154;2023-04-15T00:42:55;5.70;65.60
74364;DHT22;62797;49.740;10.154;2023-04-15T00:45:21;5.70;63.10
74364;DHT22;62797;49.740;10.154;2023-04-15T00:47:46;5.70;63.80
74364;DHT22;62797;49.740;10.154;2023-04-15T00:50:12;5.70;65.10
74364;DHT22;62797;49.740;10.154;2023-04-15T00:52:39;5.70;65.40
74364;DHT22;62797;49.740;10.154;2023-04-15T00:55:05;5.70;65.80
74364;DHT22;62797;49.740;10.154;2023-04-15T00:57:31;5.70;65.40
74364;DHT22;62797;49.740;10.154;2023-04-15T00:59:57;5.70;66.10
74364;DHT22;62797;49.740;10.154;2023-04-15T01:02:23;5.70;65.00
74364;DHT22;62797;49.740;10.154;2023-04-15T01:04:49;5.80;66.20
74364;DHT22;62797;49.740;10.154;2023-04-15T01:07:15;5.80;65.60
74364;DHT22;62797;49.740;10.154;2023-04-15T01:09:42;5.80;65.30
74364;DHT22;62797;49.740;10.154;2023-04-15T01:12:09;5.70;66.20
74364;DHT22;62797;49.740;10.154;2023-04-15T01:14:36;5.70;66.20
74364;DHT22;62797;49.740;10.154;2023-04-15T01:17:02;5.70;66.20
74364;DHT22;62797;49.740;10.154;2023-04-15T01:19:28;5.80;66.50
74364;DHT22;62797;49.740;10.154;2023-04-15T01:21:54;5.70;66.30
74364;DHT22;62797;49.740;10.154;2023-04-15T01:24:19;5.80;66.30
74364;DHT22;62797;49.740;10.154;2023-04-15T01:26:46;5.70;65.90
74364;DHT22;62797;49.740;10.154;2023-04-15T01:29:13;5.70;66.20
74364;DHT22;62797;49.740;10.154;2023-04-15T01:31:39;5.70;66.20
74364;DHT22;62797;49.740;10.154;2023-04-15T01:34:05;5.70;65.90
74364;DHT22;62797;49.740;10.154;2023-04-15T01:36:31;5.80;65.20
74364;DHT22;62797;49.740;10.154;2023-04-15T01:38:57;5.80;65.20
74364;DHT22;62797;49.740;10.154;2023-04-15T01:41:27;5.70;65.80
74364;DHT22;62797;49.740;10.154;2023-04-15T01:43:53;5.70;66.10
74364;DHT22;62797;49.740;10.154;2023-04-15T01:46:19;5.70;66.10
74364;DHT22;62797;49.740;10.154;2023-04-15T01:48:45;5.70;66.30
74364;DHT22;62797;49.740;10.154;2023-04-15T01:51:10;5.70;66.00
74364;DHT22;62797;49.740;10.154;2023-04-15T01:53:36;5.70;66.80
74364;DHT22;62797;49.740;10.154;2023-04-15T01:56:02;5.70;67.00
74364;DHT22;62797;49.740;10.154;2023-04-15T01:58:28;5.70;66.70
74364;DHT22;62797;49.740;10.154;2023-04-15T02:00:54;5.80;67.00
74364;DHT22;62797;49.740;10.154;2023-04-15T02:03:20;5.80;66.50
74364;DHT22;62797;49.740;10.154;2023-04-15T02:05:48;5.80;66.60
74364;DHT22;62797;49.740;10.154;2023-04-15T02:08:15;5.90;65.70
74364;DHT22;62797;49.740;10.154;2023-04-15T02:10:41;5.90;65.20
74364;DHT22;62797;49.740;10.154;2023-04-15T02:13:07;5.90;65.40
74364;DHT22;62797;49.740;10.154;2023-04-15T02:15:33;6.00;64.10
74364;DHT22;62797;49.740;10.154;2023-04-15T02:17:58;6.00;65.30
74364;DHT22;62797;49.740;10.154;2023-04-15T02:20:25;5.90;63.90
74364;DHT22;62797;49.740;10.154;2023-04-15T02:22:51;5.80;64.70
74364;DHT22;62797;49.740;10.154;2023-04-15T02:25:16;5.90;64.70
74364;DHT22;62797;49.740;10.154;2023-04-15T02:27:42;5.90;64.60
74364;DHT22;62797;49.740;10.154;2023-04-15T02:30:09;6.00;63.50
74364;DHT22;62797;49.740;10.154;2023-04-15T02:32:35;5.90;63.90
74364;DHT22;62797;49.740;10.154;2023-04-15T02:35:06;5.90;63.70
74364;DHT22;62797;49.740;10.154;2023-04-15T02:37:35;6.00;63.30
74364;DHT22;62797;49.740;10.154;2023-04-15T02:40:07;6.00;63.20
74364;DHT22;62797;49.740;10.154;2023-04-15T02:42:34;6.00;63.20
74364;DHT22;62797;49.740;10.154;2023-04-15T02:45:00;6.00;63.80
74364;DHT22;62797;49.740;10.154;2023-04-15T02:47:30;6.10;63.50
74364;DHT22;62797;49.740;10.154;2023-04-15T02:49:56;6.10;62.90
74364;DHT22;62797;49.740;10.154;2023-04-15T02:52:23;6.10;63.10
74364;DHT22;62797;49.740;10.154;2023-04-15T02:54:49;6.10;64.00
74364;DHT22;62797;49.740;10.154;2023-04-15T02:57:14;6.00;64.70
74364;DHT22;62797;49.740;10.154;2023-04-15T02:59:40;6.00;64.90
74364;DHT22;62797;49.740;10.154;2023-04-15T03:02:06;6.10;63.70
74364;DHT22;62797;49.740;10.154;2023-04-15T03:04:33;6.10;63.40
74364;DHT22;62797;49.740;10.154;2023-04-15T03:07:00;6.20;63.50
74364;DHT22;62797;49.740;10.154;2023-04-15T03:09:26;6.30;62.70
74364;DHT22;62797;49.740;10.154;2023-04-15T03:11:56;6.30;62.60
74364;DHT22;62797;49.740;10.154;2023-04-15T03:14:22;6.30;61.80
74364;DHT22;62797;49.740;10.154;2023-04-15T03:16:48;6.30;62.50
74364;DHT22;62797;49.740;10.154;2023-04-15T03:19:16;6.30;62.20
74364;DHT22;62797;49.740;10.154;2023-04-15T03:21:42;6.40;62.30
74364;DHT22;62797;49.740;10.154;2023-04-15T03:24:08;6.30;61.80
74364;DHT22;62797;49.740;10.154;2023-04-15T03:26:34;6.40;62.20
74364;DHT22;62797;49.740;10.154;2023-04-15T03:29:05;6.30;63.70
74364;DHT22;62797;49.740;10.154;2023-04-15T03:31:30;6.10;65.10
74364;DHT22;62797;49.740;10.154;2023-04-15T03:33:56;6.00;66.10
74364;DHT22;62797;49.740;10.154;2023-04-15T03:36:22;6.10;65.80
74364;DHT22;62797;49.740;10.154;2023-04-15T03:38:48;6.10;66.00
74364;DHT22;62797;49.740;10.154;2023-04-15T03:41:14;6.00;66.00
74364;DHT22;62797;49.740;10.154;2023-04-15T03:43:40;6.00;66.70
74364;DHT22;62797;49.740;10.154;2023-04-15T03:46:06;6.00;66.40
74364;DHT22;62797;49.740;10.154;2023-04-15T03:48:31;6.00;66.70
74364;DHT22;62797;49.740;10.154;2023-04-15T03:50:57;6.00;66.80
74364;DHT22;62797;49.740;10.154;2023-04-15T03:53:22;5.90;66.90
74364;DHT22;62797;49.740;10.154;2023-04-15T03:55:48;5.80;67.40
74364;DHT22;62797;49.740;10.154;2023-04-15T03:58:14;5.80;67.50
74364;DHT22;62797;49.740;10.154;2023-04-15T04:00:39;5.80;68.00
74364;DHT22;62797;49.740;10.154;2023-04-15T04:03:08;5.70;68.20
74364;DHT22;62797;49.740;10.154;2023-04-15T04:05:33;5.70;68.30
74364;DHT22;62797;49.740;10.154;2023-04-15T04:08:01;5.70;67.70
74364;DHT22;62797;49.740;10.154;2023-04-15T04:10:27;5.70;67.70
74364;DHT22;62797;49.740;10.154;2023-04-15T04:12:52;5.70;68.00
74364;DHT22;62797;49.740;10.154;2023-04-15T04:15:18;5.70;67.10
74364;DHT22;62797;49.740;10.154;2023-04-15T04:17:43;5.70;66.90
74364;DHT22;62797;49.740;10.154;2023-04-15T04:20:09;5.70;67.70
74364;DHT22;62797;49.740;10.154;2023-04-15T04:22:39;5.70;67.80
74364;DHT22;62797;49.740;10.154;2023-04-15T04:25:06;5.70;67.60
74364;DHT22;62797;49.740;10.154;2023-04-15T04:27:33;5.80;67.20
74364;DHT22;62797;49.740;10.154;2023-04-15T04:29:59;5.90;66.70
74364;DHT22;62797;49.740;10.154;2023-04-15T04:32:24;5.90;66.80
74364;DHT22;62797;49.740;10.154;2023-04-15T04:34:50;5.80;66.30
74364;DHT22;62797;49.740;10.154;2023-04-15T04:37:16;5.90;65.60
74364;DHT22;62797;49.740;10.154;2023-04-15T04:39:41;6.00;65.00
74364;DHT22;62797;49.740;10.154;2023-04-15T04:42:07;6.00;65.70
74364;DHT22;62797;49.740;10.154;2023-04-15T04:44:32;6.00;66.40
74364;DHT22;62797;49.740;10.154;2023-04-15T04:46:58;6.00;66.20
74364;DHT22;62797;49.740;10.154;2023-04-15T04:49:24;5.90;67.00
74364;DHT22;62797;49.740;10.154;2023-04-15T04:51:50;5.80;67.90
74364;DHT22;62797;49.740;10.154;2023-04-15T04:54:16;5.90;68.00
74364;DHT22;62797;49.740;10.154;2023-04-15T04:56:42;5.80;67.90
74364;DHT22;62797;49.740;10.154;2023-04-15T04:59:07;5.80;68.30
74364;DHT22;62797;49.740;10.154;2023-04-15T05:01:34;5.80;68.40
74364;DHT22;62797;49.740;10.154;2023-04-15T05:04:00;5.80;68.20
74364;DHT22;62797;49.740;10.154;2023-04-15T05:06:25;5.80;68.70
74364;DHT22;62797;49.740;10.154;2023-04-15T05:08:52;5.90;68.30
74364;DHT22;62797;49.740;10.154;2023-04-15T05:11:17;5.90;68.00
74364;DHT22;62797;49.740;10.154;2023-04-15T05:13:43;6.00;66.40
74364;DHT22;62797;49.740;10.154;2023-04-15T05:16:09;6.10;65.90
74364;DHT22;62797;49.740;10.154;2023-04-15T05:18:34;6.10;66.70
74364;DHT22;62797;49.740;10.154;2023-04-15T05:21:01;6.10;66.20
74364;DHT22;62797;49.740;10.154;2023-04-15T05:23:27;6.20;65.40
74364;DHT22;62797;49.740;10.154;2023-04-15T05:25:52;6.30;65.80
74364;DHT22;62797;49.740;10.154;2023-04-15T05:28:18;6.30;65.20
74364;DHT22;62797;49.740;10.154;2023-04-15T05:30:43;6.30;65.20
74364;DHT22;62797;49.740;10.154;2023-04-15T05:33:09;6.50;65.00
74364;DHT22;62797;49.740;10.154;2023-04-15T05:35:35;6.50;64.80
74364;DHT22;62797;49.740;10.154;2023-04-15T05:38:00;6.60;64.40
74364;DHT22;62797;49.740;10.154;2023-04-15T05:40:26;6.60;63.90
74364;DHT22;62797;49.740;10.154;2023-04-15T05:42:52;6.60;63.80
74364;DHT22;62797;49.740;10.154;2023-04-15T05:45:18;6.60;64.10
74364;DHT22;62797;49.740;10.154;2023-04-15T05:47:43;6.70;64.10
74364;DHT22;62797;49.740;10.154;2023-04-15T05:50:12;6.70;62.70
74364;DHT22;62797;49.740;10.154;2023-04-15T05:52:37;6.60;62.20
74364;DHT22;62797;49.740;10.154;2023-04-15T05:55:05;6.60;62.10
74364;DHT22;62797;49.740;10.154;2023-04-15T05:57:33;6.70;62.80
74364;DHT22;62797;49.740;10.154;2023-04-15T05:59:59;6.80;63.50
74364;DHT22;62797;49.740;10.154;2023-04-15T06:02:24;6.90;62.70
74364;DHT22;62797;49.740;10.154;2023-04-15T06:04:50;7.00;61.40
74364;DHT22;62797;49.740;10.154;2023-04-15T06:07:16;7.00;61.00
74364;DHT22;62797;49.740;10.154;2023-04-15T06:09:42;7.00;60.30
74364;DHT22;62797;49.740;10.154;2023-04-15T06:12:07;7.10;60.00
74364;DHT22;62797;49.740;10.154;2023-04-15T06:14:37;7.20;60.00
74364;DHT22;62797;49.740;10.154;2023-04-15T06:17:03;7.30;60.00
74364;DHT22;62797;49.740;10.154;2023-04-15T06:19:28;7.30;60.00
74364;DHT22;62797;49.740;10.154;2023-04-15T06:21:54;7.40;60.20
74364;DHT22;62797;49.740;10.154;2023-04-15T06:24:20;7.50;59.30
74364;DHT22;62797;49.740;10.154;2023-04-15T06:26:45;7.60;59.10
74364;DHT22;62797;49.740;10.154;2023-04-15T06:29:11;7.70;59.30
74364;DHT22;62797;49.740;10.154;2023-04-15T06:31:37;7.90;59.60
74364;DHT22;62797;49.740;10.154;2023-04-15T06:34:02;8.10;59.30
74364;DHT22;62797;49.740;10.154;2023-04-15T06:36:28;8.30;58.30
74364;DHT22;62797;49.740;10.154;2023-04-15T06:38:53;8.40;57.70
74364;DHT22;62797;49.740;10.154;2023-04-15T06:41:19;8.40;56.70
74364;DHT22;62797;49.740;10.154;2023-04-15T06:43:45;8.40;57.10
74364;DHT22;62797;49.740;10.154;2023-04-15T06:46:10;8.40;57.40
74364;DHT22;62797;49.740;10.154;2023-04-15T06:48:36;8.40;55.50
74364;DHT22;62797;49.740;10.154;2023-04-15T06:51:01;8.50;56.90
74364;DHT22;62797;49.740;10.154;2023-04-15T06:53:28;8.70;56.90
74364;DHT22;62797;49.740;10.154;2023-04-15T06:55:54;8.80;52.90
74364;DHT22;62797;49.740;10.154;2023-04-15T06:58:20;8.70;54.80
74364;DHT22;62797;49.740;10.154;2023-04-15T07:00:46;8.80;52.40
74364;DHT22;62797;49.740;10.154;2023-04-15T07:03:12;8.90;49.20
74364;DHT22;62797;49.740;10.154;2023-04-15T07:05:39;8.90;48.90
74364;DHT22;62797;49.740;10.154;2023-04-15T07:08:06;9.00;49.80
74364;DHT22;62797;49.740;10.154;2023-04-15T07:10:33;9.10;48.90
74364;DHT22;62797;49.740;10.154;2023-04-15T07:12:58;9.20;48.70
74364;DHT22;62797;49.740;10.154;2023-04-15T07:15:24;9.20;47.50
74364;DHT22;62797;49.740;10.154;2023-04-15T07:17:49;9.30;48.90
74364;DHT22;62797;49.740;10.154;2023-04-15T07:20:15;9.50;47.90
74364;DHT22;62797;49.740;10.154;2023-04-15T07:22:41;9.60;45.60
74364;DHT22;62797;49.740;10.154;2023-04-15T07:25:07;9.70;46.90
74364;DHT22;62797;49.740;10.154;2023-04-15T07:27:33;9.70;45.40
74364;DHT22;62797;49.740;10.154;2023-04-15T07:29:59;9.60;44.00
74364;DHT22;62797;49.740;10.154;2023-04-15T07:32:24;9.70;44.20
74364;DHT22;62797;49.740;10.154;2023-04-15T07:34:50;9.70;44.80
74364;DHT22;62797;49.740;10.154;2023-04-15T07:37:16;9.80;45.40
74364;DHT22;62797;49.740;10.154;2023-04-15T07:39:42;9.80;43.50
74364;DHT22;62797;49.740;10.154;2023-04-15T07:42:08;10.00;43.90
74364;DHT22;62797;49.740;10.154;2023-04-15T07:44:33;9.80;41.30
74364;DHT22;62797;49.740;10.154;2023-04-15T07:47:02;9.80;41.80
74364;DHT22;62797;49.740;10.154;2023-04-15T07:49:28;10.00;42.60
74364;DHT22;62797;49.740;10.154;2023-04-15T07:51:54;10.10;42.40
74364;DHT22;62797;49.740;10.154;2023-04-15T07:54:20;10.00;41.80
74364;DHT22;62797;49.740;10.154;2023-04-15T07:56:46;10.00;42.30
74364;DHT22;62797;49.740;10.154;2023-04-15T07:59:12;10.10;40.50
74364;DHT22;62797;49.740;10.154;2023-04-15T08:01:39;10.00;40.50
74364;DHT22;62797;49.740;10.154;2023-04-15T08:04:07;10.00;38.50
74364;DHT22;62797;49.740;10.154;2023-04-15T08:06:33;9.90;38.70
74364;DHT22;62797;49.740;10.154;2023-04-15T08:08:59;9.90;39.50
74364;DHT22;62797;49.740;10.154;2023-04-15T08:11:25;10.00;39.00
74364;DHT22;62797;49.740;10.154;2023-04-15T08:13:52;10.00;39.30
74364;DHT22;62797;49.740;10.154;2023-04-15T08:16:22;10.10;38.90
74364;DHT22;62797;49.740;10.154;2023-04-15T08:18:50;10.00;37.40
74364;DHT22;62797;49.740;10.154;2023-04-15T08:21:16;10.20;38.90
74364;DHT22;62797;49.740;10.154;2023-04-15T08:23:44;10.30;37.90
74364;DHT22;62797;49.740;10.154;2023-04-15T08:26:10;10.40;36.10
74364;DHT22;62797;49.740;10.154;2023-04-15T08:28:38;10.40;36.10
74364;DHT22;62797;49.740;10.154;2023-04-15T08:31:04;10.50;37.10
74364;DHT22;62797;49.740;10.154;2023-04-15T08:33:30;10.60;37.00
74364;DHT22;62797;49.740;10.154;2023-04-15T08:35:56;10.60;37.90
74364;DHT22;62797;49.740;10.154;2023-04-15T08:38:22;10.60;37.30
74364;DHT22;62797;49.740;10.154;2023-04-15T08:40:48;10.50;35.40
74364;DHT22;62797;49.740;10.154;2023-04-15T08:43:22;10.50;36.40
74364;DHT22;62797;49.740;10.154;2023-04-15T08:45:52;10.50;35.90
74364;DHT22;62797;49.740;10.154;2023-04-15T08:48:18;10.50;35.80
74364;DHT22;62797;49.740;10.154;2023-04-15T08:50:45;10.60;38.40
74364;DHT22;62797;49.740;10.154;2023-04-15T08:53:11;10.80;36.90
74364;DHT22;62797;49.740;10.154;2023-04-15T08:55:42;10.80;36.70
74364;DHT22;62797;49.740;10.154;2023-04-15T08:58:09;11.00;37.50
74364;DHT22;62797;49.740;10.154;2023-04-15T09:00:36;11.10;39.30
74364;DHT22;62797;49.740;10.154;2023-04-15T09:03:03;11.10;39.50
74364;DHT22;62797;49.740;10.154;2023-04-15T09:05:32;11.00;41.90
74364;DHT22;62797;49.740;10.154;2023-04-15T09:07:58;11.00;39.60
74364;DHT22;62797;49.740;10.154;2023-04-15T09:10:24;11.00;38.20
74364;DHT22;62797;49.740;10.154;2023-04-15T09:12:50;11.00;39.60
74364;DHT22;62797;49.740;10.154;2023-04-15T09:15:16;10.60;36.40
74364;DHT22;62797;49.740;10.154;2023-04-15T09:17:45;10.60;38.20
74364;DHT22;62797;49.740;10.154;2023-04-15T09:20:15;10.50;39.90
74364;DHT22;62797;49.740;10.154;2023-04-15T09:22:45;10.50;42.70
74364;DHT22;62797;49.740;10.154;2023-04-15T09:27:51;10.20;43.20
74364;DHT22;62797;49.740;10.154;2023-04-15T09:30:19;10.20;43.90
74364;DHT22;62797;49.740;10.154;2023-04-15T09:33:00;10.10;43.40
74364;DHT22;62797;49.740;10.154;2023-04-15T09:35:27;10.10;47.20
74364;DHT22;62797;49.740;10.154;2023-04-15T09:38:12;10.00;45.40
74364;DHT22;62797;49.740;10.154;2023-04-15T09:40:41;9.80;47.00
74364;DHT22;62797;49.740;10.154;2023-04-15T09:43:08;9.60;47.30
74364;DHT22;62797;49.740;10.154;2023-04-15T09:45:35;9.60;49.30
74364;DHT22;62797;49.740;10.154;2023-04-15T09:48:19;9.60;51.10
74364;DHT22;62797;49.740;10.154;2023-04-15T09:50:46;9.40;46.40
74364;DHT22;62797;49.740;10.154;2023-04-15T09:53:21;9.00;46.60
74364;DHT22;62797;49.740;10.154;2023-04-15T09:55:51;8.80;50.20
74364;DHT22;62797;49.740;10.154;2023-04-15T09:58:31;8.70;50.60
74364;DHT22;62797;49.740;10.154;2023-04-15T10:00:58;8.60;51.90
74364;DHT22;62797;49.740;10.154;2023-04-15T10:03:33;8.40;50.60
74364;DHT22;62797;49.740;10.154;2023-04-15T10:06:00;8.50;50.80
74364;DHT22;62797;49.740;10.154;2023-04-15T10:08:32;8.60;50.30
74364;DHT22;62797;49.740;10.154;2023-04-15T10:11:01;8.60;47.80
74364;DHT22;62797;49.740;10.154;2023-04-15T10:13:29;8.70;46.30
74364;DHT22;62797;49.740;10.154;2023-04-15T10:16:11;8.80;46.70
74364;DHT22;62797;49.740;10.154;2023-04-15T10:18:41;8.80;47.10
74364;DHT22;62797;49.740;10.154;2023-04-15T10:21:08;8.70;45.90
74364;DHT22;62797;49.740;10.154;2023-04-15T10:23:34;8.70;48.00
74364;DHT22;62797;49.740;10.154;2023-04-15T10:26:00;8.70;46.50
74364;DHT22;62797;49.740;10.154;2023-04-15T10:28:27;8.60;48.40
74364;DHT22;62797;49.740;10.154;2023-04-15T10:30:53;8.70;47.40
74364;DHT22;62797;49.740;10.154;2023-04-15T10:33:22;8.70;46.80
74364;DHT22;62797;49.740;10.154;2023-04-15T10:35:49;8.70;47.50
74364;DHT22;62797;49.740;10.154;2023-04-15T10:38:36;8.60;47.80
74364;DHT22;62797;49.740;10.154;2023-04-15T10:43:37;8.50;48.60
74364;DHT22;62797;49.740;10.154;2023-04-15T10:46:05;8.60;52.70
74364;DHT22;62797;49.740;10.154;2023-04-15T10:48:31;8.70;52.40
74364;DHT22;62797;49.740;10.154;2023-04-15T10:50:57;8.70;51.20
74364;DHT22;62797;49.740;10.154;2023-04-15T10:53:28;8.80;52.50
74364;DHT22;62797;49.740;10.154;2023-04-15T10:55:54;8.90;49.10
74364;DHT22;62797;49.740;10.154;2023-04-15T10:58:23;8.80;51.10
74364;DHT22;62797;49.740;10.154;2023-04-15T11:00:51;8.70;52.80
74364;DHT22;62797;49.740;10.154;2023-04-15T11:03:36;8.70;53.20
74364;DHT22;62797;49.740;10.154;2023-04-15T11:06:06;8.60;55.40
74364;DHT22;62797;49.740;10.154;2023-04-15T11:08:58;8.50;54.50
74364;DHT22;62797;49.740;10.154;2023-04-15T11:12:04;8.50;54.70
74364;DHT22;62797;49.740;10.154;2023-04-15T11:14:32;8.50;56.80
74364;DHT22;62797;49.740;10.154;2023-04-15T11:16:58;8.50;56.10
74364;DHT22;62797;49.740;10.154;2023-04-15T11:19:24;8.40;55.70
74364;DHT22;62797;49.740;10.154;2023-04-15T11:21:50;8.30;58.00
74364;DHT22;62797;49.740;10.154;2023-04-15T11:24:26;8.30;58.70
74364;DHT22;62797;49.740;10.154;2023-04-15T11:26:58;8.20;60.20
74364;DHT22;62797;49.740;10.154;2023-04-15T11:29:29;8.30;62.50
74364;DHT22;62797;49.740;10.154;2023-04-15T11:32:07;8.40;66.40
74364;DHT22;62797;49.740;10.154;2023-04-15T11:34:33;8.50;65.20
74364;DHT22;62797;49.740;10.154;2023-04-15T11:37:03;8.60;62.90
74364;DHT22;62797;49.740;10.154;2023-04-15T11:39:29;8.50;63.50
74364;DHT22;62797;49.740;10.154;2023-04-15T11:41:54;8.50;63.60
74364;DHT22;62797;49.740;10.154;2023-04-15T11:44:20;8.40;61.60
74364;DHT22;62797;49.740;10.154;2023-04-15T11:46:46;8.30;63.50
74364;DHT22;62797;49.740;10.154;2023-04-15T11:49:17;8.40;65.30
74364;DHT22;62797;49.740;10.154;2023-04-15T11:51:50;8.40;65.10
74364;DHT22;62797;49.740;10.154;2023-04-15T11:54:18;8.40;66.20
74364;DHT22;62797;49.740;10.154;2023-04-15T11:56:49;8.50;67.20
74364;DHT22;62797;49.740;10.154;2023-04-15T11:59:16;8.70;64.90
74364;DHT22;62797;49.740;10.154;2023-04-15T12:01:44;8.60;64.50
74364;DHT22;62797;49.740;10.154;2023-04-15T12:04:13;8.50;63.40
74364;DHT22;62797;49.740;10.154;2023-04-15T12:06:39;8.60;63.50
74364;DHT22;62797;49.740;10.154;2023-04-15T12:11:35;8.60;62.80
74364;DHT22;62797;49.740;10.154;2023-04-15T12:14:10;8.50;63.00
74364;DHT22;62797;49.740;10.154;2023-04-15T12:16:41;8.50;64.00
74364;DHT22;62797;49.740;10.154;2023-04-15T12:19:12;8.50;66.40
74364;DHT22;62797;49.740;10.154;2023-04-15T12:21:39;8.50;65.70
74364;DHT22;62797;49.740;10.154;2023-04-15T12:24:08;8.50;67.30
74364;DHT22;62797;49.740;10.154;2023-04-15T12:26:45;8.60;66.70
74364;DHT22;62797;49.740;10.154;2023-04-15T12:29:12;8.60;68.10
74364;DHT22;62797;49.740;10.154;2023-04-15T12:31:52;8.70;66.20
74364;DHT22;62797;49.740;10.154;2023-04-15T12:34:28;8.80;67.50
74364;DHT22;62797;49.740;10.154;2023-04-15T12:36:54;8.90;65.10
74364;DHT22;62797;49.740;10.154;2023-04-15T12:39:26;8.70;63.80
74364;DHT22;62797;49.740;10.154;2023-04-15T12:41:52;8.70;63.80
74364;DHT22;62797;49.740;10.154;2023-04-15T12:44:22;8.60;65.80
74364;DHT22;62797;49.740;10.154;2023-04-15T12:46:49;8.60;65.90
74364;DHT22;62797;49.740;10.154;2023-04-15T12:49:15;8.60;65.60
74364;DHT22;62797;49.740;10.154;2023-04-15T12:51:43;8.50;64.80
74364;DHT22;62797;49.740;10.154;2023-04-15T12:54:09;8.50;65.80
74364;DHT22;62797;49.740;10.154;2023-04-15T12:56:35;8.40;65.70
74364;DHT22;62797;49.740;10.154;2023-04-15T12:59:01;8.40;68.90
74364;DHT22;62797;49.740;10.154;2023-04-15T13:01:27;8.40;69.30
74364;DHT22;62797;49.740;10.154;2023-04-15T13:03:52;8.30;68.00
74364;DHT22;62797;49.740;10.154;2023-04-15T13:06:20;8.20;69.70
74364;DHT22;62797;49.740;10.154;2023-04-15T13:08:46;8.20;72.60
74364;DHT22;62797;49.740;10.154;2023-04-15T13:11:11;8.30;74.20
74364;DHT22;62797;49.740;10.154;2023-04-15T13:13:37;8.40;74.10
74364;DHT22;62797;49.740;10.154;2023-04-15T13:16:02;8.40;71.10
74364;DHT22;62797;49.740;10.154;2023-04-15T13:18:28;8.50;73.00
74364;DHT22;62797;49.740;10.154;2023-04-15T13:20:55;8.50;70.10
74364;DHT22;62797;49.740;10.154;2023-04-15T13:23:21;8.60;74.00
74364;DHT22;62797;49.740;10.154;2023-04-15T13:25:47;8.80;74.00
74364;DHT22;62797;49.740;10.154;2023-04-15T13:28:13;8.90;71.50
74364;DHT22;62797;49.740;10.154;2023-04-15T13:30:38;9.00;71.60
74364;DHT22;62797;49.740;10.154;2023-04-15T13:33:04;9.10;67.10
74364;DHT22;62797;49.740;10.154;2023-04-15T13:35:31;8.90;66.50
74364;DHT22;62797;49.740;10.154;2023-04-15T13:37:57;8.90;69.30
74364;DHT22;62797;49.740;10.154;2023-04-15T13:40:22;8.90;66.80
74364;DHT22;62797;49.740;10.154;2023-04-15T13:42:48;8.80;65.30
74364;DHT22;62797;49.740;10.154;2023-04-15T13:45:13;8.70;67.30
74364;DHT22;62797;49.740;10.154;2023-04-15T13:47:39;8.80;67.60
74364;DHT22;62797;49.740;10.154;2023-04-15T13:50:05;8.70;66.00
74364;DHT22;62797;49.740;10.154;2023-04-15T13:52:31;8.80;65.70
74364;DHT22;62797;49.740;10.154;2023-04-15T13:54:57;8.80;68.30
74364;DHT22;62797;49.740;10.154;2023-04-15T13:57:22;8.80;67.00
74364;DHT22;62797;49.740;10.154;2023-04-15T13:59:48;8.90;65.80
74364;DHT22;62797;49.740;10.154;2023-04-15T14:02:14;8.70;64.10
74364;DHT22;62797;49.740;10.154;2023-04-15T14:04:40;8.70;66.00
74364;DHT22;62797;49.740;10.154;2023-04-15T14:07:05;8.70;65.80
74364;DHT22;62797;49.740;10.154;2023-04-15T14:09:31;8.80;64.00
74364;DHT22;62797;49.740;10.154;2023-04-15T14:11:56;8.70;64.60
74364;DHT22;62797;49.740;10.154;2023-04-15T14:14:24;8.70;64.70
74364;DHT22;62797;49.740;10.154;2023-04-15T14:16:50;8.80;65.40
74364;DHT22;62797;49.740;10.154;2023-04-15T14:19:15;8.90;65.70
74364;DHT22;62797;49.740;10.154;2023-04-15T14:21:41;8.70;62.00
74364;DHT22;62797;49.740;10.154;2023-04-15T14:24:07;8.70;65.00
74364;DHT22;62797;49.740;10.154;2023-04-15T14:26:32;8.70;65.70
74364;DHT22;62797;49.740;10.154;2023-04-15T14:28:58;8.70;63.30
74364;DHT22;62797;49.740;10.154;2023-04-15T14:31:23;8.70;63.00
74364;DHT22;62797;49.740;10.154;2023-04-15T14:33:49;8.70;64.70
74364;DHT22;62797;49.740;10.154;2023-04-15T14:36:15;8.80;62.50
74364;DHT22;62797;49.740;10.154;2023-04-15T14:38:40;8.70;63.80
74364;DHT22;62797;49.740;10.154;2023-04-15T14:41:06;8.60;64.00
74364;DHT22;62797;49.740;10.154;2023-04-15T14:43:33;8.50;65.20
74364;DHT22;62797;49.740;10.154;2023-04-15T14:45:58;8.60;66.20
74364;DHT22;62797;49.740;10.154;2023-04-15T14:48:24;8.70;68.10
74364;DHT22;62797;49.740;10.154;2023-04-15T14:50:51;8.60;66.60
74364;DHT22;62797;49.740;10.154;2023-04-15T14:53:16;8.60;67.70
74364;DHT22;62797;49.740;10.154;2023-04-15T14:55:42;8.60;68.50
74364;DHT22;62797;49.740;10.154;2023-04-15T14:58:11;8.70;69.30
74364;DHT22;62797;49.740;10.154;2023-04-15T15:00:39;8.70;68.80
74364;DHT22;62797;49.740;10.154;2023-04-15T15:03:09;8.40;67.60
74364;DHT22;62797;49.740;10.154;2023-04-15T15:05:41;8.50;72.20
74364;DHT22;62797;49.740;10.154;2023-04-15T15:08:08;8.50;71.50
74364;DHT22;62797;49.740;10.154;2023-04-15T15:10:38;8.50;71.40
74364;DHT22;62797;49.740;10.154;2023-04-15T15:13:05;8.50;72.00
74364;DHT22;62797;49.740;10.154;2023-04-15T15:15:31;8.50;72.00
74364;DHT22;62797;49.740;10.154;2023-04-15T15:17:57;8.40;71.60
74364;DHT22;62797;49.740;10.154;2023-04-15T15:20:24;8.40;72.40
74364;DHT22;62797;49.740;10.154;2023-04-15T15:22:49;8.30;73.80
74364;DHT22;62797;49.740;10.154;2023-04-15T15:25:15;8.40;74.20
74364;DHT22;62797;49.740;10.154;2023-04-15T15:27:41;8.20;73.70
74364;DHT22;62797;49.740;10.154;2023-04-15T15:30:07;8.20;73.80
74364;DHT22;62797;49.740;10.154;2023-04-15T15:32:33;8.20;76.40
74364;DHT22;62797;49.740;10.154;2023-04-15T15:34:59;8.20;75.40
74364;DHT22;62797;49.740;10.154;2023-04-15T15:37:24;8.30;76.10